Time;durP1;ratioP1;P1;durP2;ratioP2;P2;SDS_P1;SDS_P2;PMS_P1;PMS_P2;Temp;Humidity;BMP_temperature;BMP_pressure;BME280_temperature;BME280_humidity;BME280_pressure;Samples;Min_cycle;Max_cycle;Signal;HPM_P1;HPM_P2
2024/04/08 00:00:06;;;;;;;17.40;3.27;;;16.20;99.90;;;;;;5512728;25;21116;-72
2024/04/08 00:02:56;;;;;;;15.83;3.77;;;16.20;99.90;;;;;;5515455;25;20583;-73
2024/04/08 00:05:44;;;;;;;10.30;2.93;;;16.20;99.90;;;;;;5514828;25;20489;-74
2024/04/08 00:08:28;;;;;;;12.03;2.73;;;16.10;99.90;;;;;;5516658;25;20514;-73
2024/04/08 00:11:15;;;;;;;14.27;3.37;;;16.10;99.90;;;;;;5517941;25;20574;-74
2024/04/08 00:14:00;;;;;;;18.97;3.00;;;16.10;99.90;;;;;;5503497;25;22256;-74
2024/04/08 00:16:47;;;;;;;8.03;2.93;;;16.10;99.90;;;;;;5510644;25;20522;-74
2024/04/08 00:19:35;;;;;;;5.93;2.63;;;16.10;99.90;;;;;;5516989;25;20511;-74
2024/04/08 00:22:22;;;;;;;15.80;2.97;;;16.10;99.90;;;;;;5513292;25;20512;-73
2024/04/08 00:25:09;;;;;;;7.87;2.87;;;16.00;99.90;;;;;;5505611;25;20580;-74
2024/04/08 00:27:56;;;;;;;6.10;2.70;;;15.90;99.90;;;;;;5514127;25;20559;-74
2024/04/08 00:30:41;;;;;;;14.07;3.07;;;15.90;99.90;;;;;;5519009;25;20489;-74
2024/04/08 00:33:28;;;;;;;6.40;3.00;;;15.90;99.90;;;;;;5516357;25;20825;-74
2024/04/08 00:36:16;;;;;;;6.70;2.70;;;15.80;99.90;;;;;;5520527;25;20507;-73
2024/04/08 00:39:03;;;;;;;8.07;2.60;;;15.80;99.90;;;;;;5512774;25;20655;-73
2024/04/08 00:41:47;;;;;;;8.90;2.70;;;15.80;99.90;;;;;;5507634;25;20546;-73
2024/04/08 00:44:35;;;;;;;10.47;3.17;;;15.80;99.90;;;;;;5511830;25;21083;-74
2024/04/08 00:47:19;;;;;;;11.13;3.07;;;15.70;99.90;;;;;;5508150;25;20489;-74
2024/04/08 00:50:07;;;;;;;8.97;3.50;;;15.70;99.90;;;;;;5519600;25;20497;-74
2024/04/08 00:52:55;;;;;;;6.80;3.37;;;15.70;99.90;;;;;;5514597;25;20571;-74
2024/04/08 00:55:43;;;;;;;8.53;2.80;;;15.60;99.90;;;;;;5514547;25;20553;-73
2024/04/08 00:58:28;;;;;;;9.97;2.47;;;15.70;99.90;;;;;;5524423;25;20561;-73
2024/04/08 01:01:17;;;;;;;9.60;3.40;;;15.70;99.90;;;;;;5513925;25;20566;-74
2024/04/08 01:04:03;;;;;;;8.83;2.53;;;15.80;99.90;;;;;;5517303;25;20509;-74
2024/04/08 01:06:51;;;;;;;9.40;2.60;;;15.60;99.90;;;;;;5519613;25;20497;-73
2024/04/08 01:09:38;;;;;;;8.17;3.23;;;15.60;99.90;;;;;;5517583;25;20985;-73
2024/04/08 01:12:25;;;;;;;13.43;3.10;;;15.60;99.90;;;;;;5520915;25;20506;-74
2024/04/08 01:15:10;;;;;;;4.40;2.30;;;15.60;99.90;;;;;;5517592;25;20541;-74
2024/04/08 01:17:58;;;;;;;12.40;3.10;;;15.60;99.90;;;;;;5515671;25;20521;-73
2024/04/08 01:20:42;;;;;;;6.13;2.80;;;15.40;99.90;;;;;;5516654;25;20484;-74
2024/04/08 01:23:31;;;;;;;10.93;3.53;;;15.40;99.90;;;;;;5520190;25;20524;-73
2024/04/08 01:26:18;;;;;;;10.27;2.47;;;15.30;99.90;;;;;;5518282;25;20486;-74
2024/04/08 01:29:06;;;;;;;8.40;3.40;;;15.40;99.90;;;;;;5522271;25;20524;-73
2024/04/08 01:31:50;;;;;;;11.07;3.10;;;15.30;99.90;;;;;;5509834;25;20501;-73
2024/04/08 01:34:38;;;;;;;14.63;3.00;;;15.30;99.90;;;;;;5511523;25;20555;-73
2024/04/08 01:37:23;;;;;;;10.50;2.93;;;15.30;99.90;;;;;;5515411;25;20536;-74
2024/04/08 01:40:11;;;;;;;6.30;2.37;;;15.30;99.90;;;;;;5519153;25;21306;-74
2024/04/08 01:42:58;;;;;;;10.83;2.60;;;15.30;99.90;;;;;;5517009;25;21041;-74
2024/04/08 01:45:45;;;;;;;6.10;2.60;;;15.30;99.90;;;;;;5514353;25;20588;-73
2024/04/08 01:48:30;;;;;;;7.43;3.10;;;15.40;99.90;;;;;;5520492;25;21119;-74
2024/04/08 01:51:17;;;;;;;12.37;2.90;;;15.40;99.90;;;;;;5511197;25;20513;-73
2024/04/08 01:54:02;;;;;;;5.73;2.33;;;15.50;99.90;;;;;;5514846;25;20863;-74
2024/04/08 01:56:49;;;;;;;9.10;2.90;;;15.40;99.90;;;;;;5515212;25;20516;-74
2024/04/08 01:59:37;;;;;;;10.63;3.40;;;15.40;99.90;;;;;;5519191;25;20498;-73
2024/04/08 02:02:24;;;;;;;5.90;2.60;;;15.50;99.90;;;;;;5512398;25;21047;-73
2024/04/08 02:05:09;;;;;;;8.40;3.47;;;15.50;99.90;;;;;;5516774;25;20547;-74
2024/04/08 02:07:56;;;;;;;5.17;2.83;;;15.40;99.90;;;;;;5516913;25;20510;-74
2024/04/08 02:10:43;;;;;;;13.97;3.23;;;15.40;99.90;;;;;;5516920;25;20848;-73
2024/04/08 02:13:30;;;;;;;18.53;3.07;;;15.40;99.90;;;;;;5517854;25;20607;-73
2024/04/08 02:16:18;;;;;;;13.20;2.80;;;15.30;99.90;;;;;;5513057;25;20492;-74
2024/04/08 02:19:05;;;;;;;8.23;2.93;;;15.20;99.90;;;;;;5508514;25;20507;-73
2024/04/08 02:21:52;;;;;;;15.03;3.20;;;15.20;99.90;;;;;;5510588;25;20555;-74
2024/04/08 02:24:40;;;;;;;11.60;2.97;;;15.20;99.90;;;;;;5517728;25;20538;-74
2024/04/08 02:27:25;;;;;;;6.33;3.27;;;15.30;99.90;;;;;;5513742;25;20511;-74
2024/04/08 02:30:12;;;;;;;11.27;3.10;;;15.30;99.90;;;;;;5517471;25;21173;-75
2024/04/08 02:33:00;;;;;;;8.70;2.57;;;15.30;99.90;;;;;;5498986;25;20547;-74
2024/04/08 02:35:47;;;;;;;23.73;3.23;;;15.30;99.90;;;;;;5510563;25;21072;-73
2024/04/08 02:38:33;;;;;;;8.50;2.60;;;15.30;99.90;;;;;;5512568;25;20876;-74
2024/04/08 02:41:20;;;;;;;7.37;2.83;;;15.30;99.90;;;;;;5518384;25;20510;-74
2024/04/08 02:44:05;;;;;;;7.17;2.80;;;15.30;99.90;;;;;;5504949;25;20496;-74
2024/04/08 02:46:52;;;;;;;10.50;4.30;;;15.30;99.90;;;;;;5506260;25;20486;-74
2024/04/08 02:49:39;;;;;;;7.77;2.53;;;15.30;99.90;;;;;;5515185;25;20522;-73
2024/04/08 02:52:27;;;;;;;10.33;3.13;;;15.40;99.90;;;;;;5512905;25;20568;-74
2024/04/08 02:55:11;;;;;;;9.43;3.00;;;15.20;99.90;;;;;;5513200;25;20496;-74
2024/04/08 02:57:59;;;;;;;8.40;2.80;;;15.20;99.90;;;;;;5511645;25;20540;-74
2024/04/08 03:00:46;;;;;;;9.53;2.70;;;15.30;99.90;;;;;;5515578;25;20603;-74
2024/04/08 03:03:30;;;;;;;8.17;3.03;;;15.20;99.90;;;;;;5513390;25;20503;-74
2024/04/08 03:06:21;;;;;;;11.93;2.90;;;15.30;99.90;;;;;;5515403;25;20481;-73
2024/04/08 03:09:06;;;;;;;8.80;2.93;;;15.20;99.90;;;;;;5510623;25;20908;-74
2024/04/08 03:11:53;;;;;;;5.90;2.70;;;15.20;99.90;;;;;;5519530;25;20504;-74
2024/04/08 03:14:38;;;;;;;10.00;3.03;;;15.20;99.90;;;;;;5507247;25;20709;-74
2024/04/08 03:17:25;;;;;;;8.23;2.90;;;15.20;99.90;;;;;;5508652;25;20487;-73
2024/04/08 03:20:10;;;;;;;10.60;2.80;;;15.30;99.90;;;;;;5515647;25;20538;-74
2024/04/08 03:23:00;;;;;;;13.43;2.80;;;15.20;99.90;;;;;;5507423;25;20493;-74
2024/04/08 03:25:45;;;;;;;11.73;2.90;;;15.20;99.90;;;;;;5515576;25;20500;-74
2024/04/08 03:28:32;;;;;;;8.17;2.40;;;15.20;99.90;;;;;;5512686;25;20510;-73
2024/04/08 03:31:17;;;;;;;17.03;3.13;;;15.30;99.90;;;;;;5519922;25;20469;-73
2024/04/08 03:34:05;;;;;;;24.17;2.93;;;15.30;99.90;;;;;;5511039;25;20524;-73
2024/04/08 03:36:50;;;;;;;8.17;2.63;;;15.20;99.90;;;;;;5515884;25;20506;-74
2024/04/08 03:39:40;;;;;;;11.43;2.80;;;15.10;99.90;;;;;;5515564;25;20518;-74
2024/04/08 03:42:27;;;;;;;12.23;2.77;;;15.20;99.90;;;;;;5512161;25;20513;-74
2024/04/08 03:45:15;;;;;;;9.40;3.20;;;15.20;99.90;;;;;;5514045;25;20886;-73
2024/04/08 03:48:02;;;;;;;17.33;3.73;;;15.30;99.90;;;;;;5511150;25;20573;-74
2024/04/08 03:50:46;;;;;;;8.63;2.57;;;15.40;99.90;;;;;;5516647;25;20503;-73
2024/04/08 03:53:34;;;;;;;7.90;2.70;;;15.50;99.90;;;;;;5515879;25;20507;-74
2024/04/08 03:56:21;;;;;;;8.63;2.53;;;15.70;99.90;;;;;;5511345;25;20509;-74
2024/04/08 03:59:08;;;;;;;11.40;3.47;;;15.80;99.90;;;;;;5516684;25;20800;-73
2024/04/08 04:01:53;;;;;;;11.37;2.70;;;15.90;99.90;;;;;;5504257;25;21051;-73
2024/04/08 04:04:40;;;;;;;7.83;2.87;;;15.90;99.90;;;;;;5516163;25;20510;-74
2024/04/08 04:07:25;;;;;;;15.13;2.93;;;15.90;99.90;;;;;;5515533;25;20543;-74
2024/04/08 04:10:14;;;;;;;9.40;3.03;;;15.90;99.90;;;;;;5513666;25;20538;-74
2024/04/08 04:13:01;;;;;;;23.87;3.83;;;15.90;99.90;;;;;;5515244;25;20551;-74
2024/04/08 04:15:48;;;;;;;9.40;2.93;;;15.90;99.90;;;;;;5517507;25;20555;-73
2024/04/08 04:18:33;;;;;;;7.27;3.17;;;15.80;99.90;;;;;;5510829;25;21099;-73
2024/04/08 04:21:20;;;;;;;11.10;2.80;;;15.80;99.90;;;;;;5515921;25;20538;-73
2024/04/08 04:24:06;;;;;;;8.63;2.73;;;15.70;99.90;;;;;;5515708;25;20502;-74
2024/04/08 04:26:53;;;;;;;6.00;3.10;;;15.70;99.90;;;;;;5508234;25;20476;-74
2024/04/08 04:29:43;;;;;;;8.30;4.13;;;15.70;99.90;;;;;;5511890;25;20525;-73
2024/04/08 04:32:27;;;;;;;16.77;3.30;;;15.60;99.90;;;;;;5515176;25;20568;-74
2024/04/08 04:35:16;;;;;;;11.83;3.40;;;15.50;99.90;;;;;;5511363;25;20478;-73
2024/04/08 04:38:00;;;;;;;4.43;2.70;;;15.60;99.90;;;;;;5517101;25;21099;-74
2024/04/08 04:40:48;;;;;;;7.50;2.73;;;15.50;99.90;;;;;;5521778;25;22179;-73
2024/04/08 04:43:33;;;;;;;4.67;2.73;;;15.50;99.90;;;;;;5517660;25;20485;-73
2024/04/08 04:46:23;;;;;;;8.07;3.00;;;15.50;99.90;;;;;;5518265;25;20517;-73
2024/04/08 04:49:08;;;;;;;12.83;3.00;;;15.40;99.90;;;;;;5522489;25;20574;-73
2024/04/08 04:51:55;;;;;;;9.50;2.47;;;15.30;99.90;;;;;;5517250;25;20497;-73
2024/04/08 04:54:40;;;;;;;7.00;4.57;;;15.30;99.90;;;;;;5524543;25;20508;-73
2024/04/08 04:57:27;;;;;;;10.17;3.00;;;15.20;99.90;;;;;;5517859;25;20866;-75
2024/04/08 05:00:13;;;;;;;8.37;2.47;;;15.20;99.90;;;;;;5514172;25;20518;-75
2024/04/08 05:03:03;;;;;;;11.97;3.10;;;15.10;99.90;;;;;;5514853;25;20521;-75
2024/04/08 05:05:52;;;;;;;13.47;2.97;;;15.10;99.90;;;;;;5517814;25;21111;-75
2024/04/08 05:08:39;;;;;;;7.00;3.20;;;15.00;99.90;;;;;;5518697;25;20535;-74
2024/04/08 05:11:24;;;;;;;12.77;3.03;;;15.10;99.90;;;;;;5518650;25;20555;-75
2024/04/08 05:14:11;;;;;;;12.03;3.23;;;15.00;99.90;;;;;;5515122;25;20488;-75
2024/04/08 05:16:56;;;;;;;9.87;3.57;;;15.00;99.90;;;;;;5509190;25;20519;-74
2024/04/08 05:19:47;;;;;;;10.40;3.93;;;15.00;99.90;;;;;;5515771;25;20469;-74
2024/04/08 05:22:31;;;;;;;8.07;2.80;;;14.90;99.90;;;;;;5516072;25;20477;-74
2024/04/08 05:25:19;;;;;;;6.00;2.50;;;14.90;99.90;;;;;;5517985;25;20481;-75
2024/04/08 05:28:04;;;;;;;6.10;2.77;;;15.00;99.90;;;;;;5515817;25;20486;-74
2024/04/08 05:30:52;;;;;;;5.40;3.10;;;15.10;99.90;;;;;;5511524;25;20557;-75
2024/04/08 05:33:36;;;;;;;8.20;2.67;;;15.20;99.90;;;;;;5512433;25;20485;-74
2024/04/08 05:36:26;;;;;;;13.90;3.33;;;15.20;99.90;;;;;;5508715;25;20601;-75
2024/04/08 05:39:11;;;;;;;9.80;4.37;;;15.20;99.90;;;;;;5511396;25;20530;-75
2024/04/08 05:42:00;;;;;;;8.70;3.17;;;15.20;99.90;;;;;;5513040;25;20512;-74
2024/04/08 05:44:44;;;;;;;6.43;3.60;;;15.10;99.90;;;;;;5513385;25;20517;-75
2024/04/08 05:47:32;;;;;;;10.43;2.93;;;15.20;99.90;;;;;;5505330;25;20575;-74
2024/04/08 05:50:17;;;;;;;12.77;3.63;;;15.20;99.90;;;;;;5516290;25;20481;-74
2024/04/08 05:53:07;;;;;;;8.47;3.20;;;15.20;99.90;;;;;;5504523;25;20577;-75
2024/04/08 05:55:51;;;;;;;11.53;3.77;;;15.30;99.90;;;;;;5509566;25;20512;-74
2024/04/08 05:58:39;;;;;;;10.63;3.30;;;15.30;99.90;;;;;;5498970;25;20492;-75
2024/04/08 06:01:23;;;;;;;18.00;3.33;;;15.40;99.90;;;;;;5508077;25;20564;-75
2024/04/08 06:04:11;;;;;;;7.50;2.70;;;15.40;99.90;;;;;;5503275;25;20535;-74
2024/04/08 06:06:55;;;;;;;5.73;3.53;;;15.50;99.90;;;;;;5513347;25;22205;-75
2024/04/08 06:09:45;;;;;;;8.70;3.50;;;15.50;99.90;;;;;;5514385;25;20879;-73
2024/04/08 06:12:30;;;;;;;11.07;3.60;;;15.50;99.90;;;;;;5502703;25;20559;-75
2024/04/08 06:15:19;;;;;;;5.40;3.03;;;15.60;99.90;;;;;;5508175;25;21059;-74
2024/04/08 06:18:04;;;;;;;9.57;2.83;;;15.60;99.90;;;;;;5507367;25;20869;-74
2024/04/08 06:20:56;;;;;;;8.10;3.00;;;15.70;99.90;;;;;;5514732;25;20460;-74
2024/04/08 06:23:41;;;;;;;5.80;2.77;;;15.80;99.90;;;;;;5512689;25;20275;-76
2024/04/08 06:26:31;;;;;;;10.70;3.77;;;15.90;99.90;;;;;;5506144;25;20575;-75
2024/04/08 06:29:16;;;;;;;8.83;3.20;;;16.00;99.90;;;;;;5511857;25;20594;-74
2024/04/08 06:32:03;;;;;;;9.63;3.23;;;16.10;99.90;;;;;;5516085;25;21055;-75
2024/04/08 06:34:48;;;;;;;12.87;3.57;;;16.20;99.90;;;;;;5531149;25;20586;-74
2024/04/08 06:37:35;;;;;;;9.17;3.23;;;16.40;99.90;;;;;;5520317;25;20539;-75
2024/04/08 06:40:21;;;;;;;15.53;3.60;;;16.50;99.90;;;;;;5524101;25;20558;-74
2024/04/08 06:43:10;;;;;;;14.10;3.30;;;16.60;99.90;;;;;;5521309;25;20618;-75
2024/04/08 06:45:55;;;;;;;16.40;3.50;;;16.70;99.90;;;;;;5526873;25;20549;-75
2024/04/08 06:48:42;;;;;;;21.83;4.00;;;16.80;99.90;;;;;;5518184;25;20473;-75
2024/04/08 06:51:27;;;;;;;13.73;3.97;;;17.00;99.90;;;;;;5529402;25;20481;-74
2024/04/08 06:54:14;;;;;;;8.50;3.87;;;17.10;99.90;;;;;;5516842;25;20464;-75
2024/04/08 06:56:59;;;;;;;11.57;3.50;;;17.10;99.90;;;;;;5518861;25;20480;-74
2024/04/08 06:59:49;;;;;;;5.27;3.67;;;17.10;99.90;;;;;;5510325;25;20482;-74
2024/04/08 07:02:33;;;;;;;10.87;3.43;;;17.30;99.90;;;;;;5518065;25;20541;-75
2024/04/08 07:05:21;;;;;;;6.43;3.20;;;17.40;99.90;;;;;;5518656;25;20486;-74
2024/04/08 07:08:06;;;;;;;11.07;3.17;;;17.50;99.90;;;;;;5520111;25;20569;-74
2024/04/08 07:10:53;;;;;;;16.17;3.70;;;17.70;99.90;;;;;;5521821;25;20485;-75
2024/04/08 07:13:38;;;;;;;18.70;4.20;;;17.90;99.90;;;;;;5518023;25;20507;-75
2024/04/08 07:16:28;;;;;;;15.17;4.90;;;17.90;99.90;;;;;;5522230;25;20479;-75
2024/04/08 07:19:12;;;;;;;12.40;4.30;;;18.10;99.90;;;;;;5509544;25;21091;-75
2024/04/08 07:22:00;;;;;;;19.93;3.73;;;18.20;99.90;;;;;;5526150;25;21054;-74
2024/04/08 07:24:45;;;;;;;15.03;2.80;;;18.30;99.90;;;;;;5511041;25;20496;-75
2024/04/08 07:27:35;;;;;;;11.47;3.20;;;18.40;99.90;;;;;;5524533;25;20538;-74
2024/04/08 07:30:19;;;;;;;19.60;2.80;;;18.50;99.90;;;;;;5522451;25;20466;-75
2024/04/08 07:33:10;;;;;;;10.30;2.73;;;18.60;99.90;;;;;;5524460;25;21132;-75
2024/04/08 07:35:54;;;;;;;18.43;3.53;;;18.70;99.90;;;;;;5527808;25;20490;-75
2024/04/08 07:38:42;;;;;;;15.33;2.70;;;18.90;92.10;;;;;;5516006;25;21057;-74
2024/04/08 07:41:26;;;;;;;6.50;2.30;;;19.10;79.30;;;;;;5511484;25;20577;-74
2024/04/08 07:44:14;;;;;;;8.53;2.30;;;19.30;67.20;;;;;;5522357;25;20498;-75
2024/04/08 07:46:59;;;;;;;14.17;2.30;;;19.60;60.40;;;;;;5525778;25;20532;-73
2024/04/08 07:49:55;;;;;;;14.97;2.57;;;19.70;55.20;;;;;;5523695;25;21029;-73
2024/04/08 07:52:40;;;;;;;20.30;2.77;;;19.80;58.00;;;;;;5515834;25;20572;-74
2024/04/08 07:55:27;;;;;;;10.03;2.03;;;19.90;60.90;;;;;;5525045;25;20510;-74
2024/04/08 07:58:14;;;;;;;16.77;3.53;;;20.10;48.80;;;;;;5520914;25;20481;-74
2024/04/08 08:00:59;;;;;;;11.10;2.17;;;20.20;46.70;;;;;;5527681;25;20483;-73
2024/04/08 08:03:47;;;;;;;16.13;2.80;;;20.40;45.10;;;;;;5523200;25;20595;-74
2024/04/08 08:06:35;;;;;;;11.63;3.40;;;20.50;43.80;;;;;;5520314;25;20473;-73
2024/04/08 08:09:22;;;;;;;9.40;2.70;;;20.60;41.90;;;;;;5512958;25;20501;-74
2024/04/08 08:12:10;;;;;;;9.80;2.17;;;20.60;36.90;;;;;;5522183;25;20550;-74
2024/04/08 08:14:57;;;;;;;11.60;2.50;;;20.80;30.60;;;;;;5525382;25;20503;-74
2024/04/08 08:17:44;;;;;;;11.23;2.80;;;20.80;33.40;;;;;;5522197;25;20866;-74
2024/04/08 08:20:33;;;;;;;6.20;2.43;;;20.80;29.70;;;;;;5518582;25;20573;-74
2024/04/08 08:23:23;;;;;;;15.27;3.27;;;20.90;33.80;;;;;;5515696;25;21054;-74
2024/04/08 08:26:10;;;;;;;12.10;2.70;;;20.90;29.50;;;;;;5506252;25;20475;-74
2024/04/08 08:28:58;;;;;;;11.60;2.60;;;20.90;28.90;;;;;;5509686;25;20557;-74
2024/04/08 08:31:45;;;;;;;7.27;2.13;;;21.00;29.00;;;;;;5519821;25;20522;-75
2024/04/08 08:34:32;;;;;;;10.37;2.30;;;21.00;27.20;;;;;;5512336;25;20516;-76
2024/04/08 08:37:17;;;;;;;13.67;4.03;;;21.10;29.30;;;;;;5515781;25;20508;-75
2024/04/08 08:40:26;;;;;;;7.83;2.03;;;21.20;28.90;;;;;;5515130;25;20601;-75
2024/04/08 08:43:11;;;;;;;8.53;2.30;;;21.30;33.20;;;;;;5507834;25;20507;-74
2024/04/08 08:45:59;;;;;;;8.10;1.90;;;21.40;28.40;;;;;;5512218;25;20475;-75
2024/04/08 08:48:48;;;;;;;9.47;2.33;;;21.50;24.60;;;;;;5514371;25;20528;-75
2024/04/08 08:51:35;;;;;;;9.10;3.00;;;21.50;25.50;;;;;;5511660;25;20550;-75
2024/04/08 08:54:20;;;;;;;10.10;2.23;;;21.60;24.20;;;;;;5517591;25;20500;-75
2024/04/08 08:57:10;;;;;;;14.23;3.03;;;21.70;26.10;;;;;;5519160;25;20512;-74
2024/04/08 08:59:57;;;;;;;19.83;3.17;;;21.80;24.60;;;;;;5519232;25;20556;-75
2024/04/08 09:02:47;;;;;;;12.53;3.30;;;21.80;24.30;;;;;;5515821;25;20864;-75
2024/04/08 09:05:31;;;;;;;7.43;2.83;;;21.90;24.50;;;;;;5517975;25;20494;-74
2024/04/08 09:08:19;;;;;;;7.60;2.60;;;21.90;24.50;;;;;;5510147;25;20587;-75
2024/04/08 09:11:05;;;;;;;22.60;3.17;;;22.00;25.80;;;;;;5518849;25;20568;-75
2024/04/08 09:14:08;;;;;;;8.80;2.33;;;22.00;26.80;;;;;;5509101;25;20507;-75
2024/04/08 09:16:52;;;;;;;10.30;2.83;;;22.10;28.10;;;;;;5506163;25;20546;-75
2024/04/08 09:19:40;;;;;;;8.70;2.70;;;22.20;28.20;;;;;;5514509;25;20547;-75
2024/04/08 09:22:27;;;;;;;10.03;3.37;;;22.20;25.50;;;;;;5516062;25;21111;-75
2024/04/08 09:25:13;;;;;;;6.10;2.00;;;22.30;28.30;;;;;;5525179;25;20545;-74
2024/04/08 09:28:01;;;;;;;9.43;2.83;;;22.30;26.70;;;;;;5510497;25;20528;-75
2024/04/08 09:30:48;;;;;;;6.67;2.30;;;22.40;28.40;;;;;;5496377;25;20881;-75
2024/04/08 09:33:36;;;;;;;18.33;2.67;;;22.40;28.40;;;;;;5516651;25;20542;-75
2024/04/08 09:36:21;;;;;;;10.90;2.50;;;22.30;28.30;;;;;;5518689;25;20504;-75
2024/04/08 09:39:11;;;;;;;5.67;2.47;;;22.30;29.70;;;;;;5514794;25;20501;-75
2024/04/08 09:41:58;;;;;;;12.60;2.73;;;22.30;27.70;;;;;;5519479;25;20997;-74
2024/04/08 09:44:46;;;;;;;8.20;2.50;;;22.30;29.90;;;;;;5520334;25;20502;-74
2024/04/08 09:47:39;;;;;;;18.10;3.30;;;22.30;25.70;;;;;;5508053;25;20489;-75
2024/04/08 09:50:25;;;;;;;10.80;2.93;;;22.10;24.90;;;;;;5506843;25;20561;-75
2024/04/08 09:53:13;;;;;;;10.57;2.50;;;22.10;28.10;;;;;;5497189;25;20529;-75
2024/04/08 09:56:03;;;;;;;22.73;2.60;;;22.10;29.50;;;;;;5502266;25;20857;-74
2024/04/08 09:59:02;;;;;;;8.33;2.60;;;22.20;26.90;;;;;;5501542;25;20565;-75
2024/04/08 10:01:47;;;;;;;10.40;3.37;;;22.30;27.50;;;;;;5507915;25;20533;-75
2024/04/08 10:04:40;;;;;;;13.43;3.00;;;22.40;28.40;;;;;;5523906;25;21074;-75
2024/04/08 10:07:25;;;;;;;12.57;3.00;;;22.50;27.90;;;;;;5508967;25;21049;-75
2024/04/08 10:10:15;;;;;;;13.97;3.00;;;22.50;28.10;;;;;;5515371;25;20568;-75
2024/04/08 10:13:00;;;;;;;9.90;2.87;;;22.50;28.60;;;;;;5516633;25;20507;-75
2024/04/08 10:15:47;;;;;;;22.90;2.50;;;22.50;29.60;;;;;;5509211;25;20517;-75
2024/04/08 10:18:32;;;;;;;6.73;3.10;;;22.60;28.80;;;;;;5519497;25;20872;-75
2024/04/08 10:21:22;;;;;;;8.20;2.80;;;22.70;30.00;;;;;;5510408;25;20908;-76
2024/04/08 10:24:25;;;;;;;14.37;2.77;;;22.80;28.70;;;;;;5518015;25;20556;-76
2024/04/08 10:27:14;;;;;;;12.93;2.60;;;22.90;27.10;;;;;;5517595;25;20512;-75
2024/04/08 10:30:00;;;;;;;10.07;2.70;;;23.10;27.10;;;;;;5516052;25;20554;-75
2024/04/08 10:32:47;;;;;;;9.83;2.37;;;23.20;23.30;;;;;;5511338;25;20638;-76
2024/04/08 10:35:32;;;;;;;8.10;2.50;;;23.30;24.70;;;;;;5517726;25;21094;-75
2024/04/08 10:38:22;;;;;;;18.03;3.30;;;23.50;24.70;;;;;;5516694;25;20507;-75
2024/04/08 10:41:07;;;;;;;13.47;3.10;;;23.60;24.60;;;;;;5517860;25;20495;-76
2024/04/08 10:43:55;;;;;;;10.47;2.30;;;23.60;22.40;;;;;;5510363;25;20508;-75
2024/04/08 10:46:39;;;;;;;11.73;2.67;;;23.60;23.70;;;;;;5501721;25;21053;-75
2024/04/08 10:49:27;;;;;;;6.47;2.33;;;23.70;23.60;;;;;;5521873;25;20496;-75
2024/04/08 10:52:12;;;;;;;9.60;2.33;;;23.90;26.30;;;;;;5529663;25;20512;-74
2024/04/08 10:55:04;;;;;;;31.53;3.10;;;23.90;23.90;;;;;;5521868;25;20594;-75
2024/04/08 10:57:48;;;;;;;15.17;2.73;;;23.90;24.30;;;;;;5516658;25;20579;-75
2024/04/08 11:00:36;;;;;;;11.10;2.80;;;24.00;23.90;;;;;;5513353;25;20573;-75
2024/04/08 11:03:22;;;;;;;6.23;2.43;;;24.00;20.20;;;;;;5518360;25;20500;-75
2024/04/08 11:06:09;;;;;;;11.40;2.57;;;24.10;21.10;;;;;;5512497;25;20489;-75
2024/04/08 11:08:53;;;;;;;10.90;3.00;;;24.00;19.30;;;;;;5509033;25;20547;-75
2024/04/08 11:11:44;;;;;;;20.50;3.20;;;24.00;21.40;;;;;;5519024;25;20555;-76
2024/04/08 11:14:32;;;;;;;8.70;2.50;;;23.90;21.10;;;;;;5518647;25;21135;-75
2024/04/08 11:17:20;;;;;;;10.53;2.70;;;23.80;22.90;;;;;;5514032;25;20490;-75
2024/04/08 11:20:09;;;;;;;6.07;2.20;;;23.90;21.70;;;;;;5512788;25;20523;-75
2024/04/08 11:22:54;;;;;;;15.87;2.70;;;23.80;18.00;;;;;;5516931;25;20568;-75
2024/04/08 11:25:41;;;;;;;14.17;2.47;;;23.80;19.10;;;;;;5512949;25;20986;-75
2024/04/08 11:28:29;;;;;;;8.17;3.30;;;23.70;18.40;;;;;;5513926;25;20510;-75
2024/04/08 11:31:16;;;;;;;22.43;3.40;;;23.70;20.30;;;;;;5514406;25;20515;-75
2024/04/08 11:34:01;;;;;;;24.27;2.90;;;23.90;20.60;;;;;;5520522;25;20545;-75
2024/04/08 11:36:48;;;;;;;11.77;2.20;;;24.00;16.20;;;;;;5509640;25;20522;-75
2024/04/08 11:39:33;;;;;;;13.60;2.17;;;24.10;14.60;;;;;;5513412;25;20569;-76
2024/04/08 11:42:20;;;;;;;8.70;2.77;;;24.10;16.20;;;;;;5506339;25;20504;-76
2024/04/08 11:45:08;;;;;;;11.40;2.37;;;24.10;15.30;;;;;;5513391;25;20604;-75
2024/04/08 11:47:55;;;;;;;12.67;2.63;;;24.00;14.30;;;;;;5513658;25;20511;-75
2024/04/08 11:50:41;;;;;;;8.23;2.40;;;24.00;14.70;;;;;;5504253;25;20575;-76
2024/04/08 11:53:28;;;;;;;6.53;2.70;;;23.90;14.00;;;;;;5515171;25;20506;-75
2024/04/08 11:56:13;;;;;;;9.53;1.77;;;23.80;17.10;;;;;;5519247;25;21061;-75
2024/04/08 11:59:01;;;;;;;17.30;3.43;;;23.70;15.10;;;;;;5519791;25;20518;-75
2024/04/08 12:01:49;;;;;;;11.43;2.87;;;23.70;15.80;;;;;;5513022;25;21103;-75
2024/04/08 12:04:36;;;;;;;6.30;2.13;;;23.80;17.00;;;;;;5513545;25;20500;-75
2024/04/08 12:07:23;;;;;;;13.00;3.10;;;23.90;10.20;;;;;;5518279;25;20573;-75
2024/04/08 12:10:09;;;;;;;4.77;1.60;;;24.10;11.40;;;;;;5516584;25;20560;-75
2024/04/08 12:12:56;;;;;;;11.07;2.50;;;24.20;10.60;;;;;;5514898;25;20501;-75
2024/04/08 12:15:41;;;;;;;13.00;2.50;;;24.20;12.60;;;;;;5511715;25;20545;-75
2024/04/08 12:18:31;;;;;;;16.40;3.30;;;24.30;10.90;;;;;;5509946;25;20511;-75
2024/04/08 12:21:16;;;;;;;11.17;2.73;;;24.30;8.20;;;;;;5511226;25;20518;-75
2024/04/08 12:24:03;;;;;;;11.83;2.30;;;24.50;9.80;;;;;;5509353;25;20524;-75
2024/04/08 12:26:49;;;;;;;9.60;3.30;;;24.70;8.80;;;;;;5509246;25;21122;-75
2024/04/08 12:29:36;;;;;;;19.10;2.40;;;25.00;9.40;;;;;;5513480;25;20598;-75
2024/04/08 12:32:22;;;;;;;10.73;3.37;;;25.10;7.30;;;;;;5502131;25;20880;-74
2024/04/08 12:35:12;;;;;;;7.20;2.37;;;25.30;7.40;;;;;;5508487;25;20575;-75
2024/04/08 12:37:59;;;;;;;9.07;2.60;;;25.60;7.40;;;;;;5508113;25;21195;-75
2024/04/08 12:40:44;;;;;;;8.93;2.57;;;25.80;7.40;;;;;;5505067;25;20500;-73
2024/04/08 12:43:31;;;;;;;16.43;2.40;;;25.80;1.10;;;;;;5508336;25;20516;-74
2024/04/08 12:46:17;;;;;;;12.10;2.63;;;25.90;5.30;;;;;;5509086;25;20512;-74
2024/04/08 12:49:04;;;;;;;12.00;2.40;;;25.90;5.20;;;;;;5510438;25;20576;-75
2024/04/08 12:51:52;;;;;;;12.17;3.47;;;26.00;7.30;;;;;;5507616;25;20511;-75
2024/04/08 12:54:39;;;;;;;11.03;2.73;;;26.10;3.70;;;;;;5515242;25;20525;-74
2024/04/08 12:57:23;;;;;;;7.20;2.67;;;26.30;3.00;;;;;;5510474;25;20553;-73
2024/04/08 13:00:11;;;;;;;17.87;2.87;;;26.40;3.20;;;;;;5514762;25;20571;-74
2024/04/08 13:02:56;;;;;;;15.00;2.80;;;26.50;2.40;;;;;;5516215;25;20616;-73
2024/04/08 13:05:43;;;;;;;6.77;2.23;;;26.60;2.10;;;;;;5515805;25;21099;-73
2024/04/08 13:08:30;;;;;;;11.67;2.43;;;26.70;1.70;;;;;;5512131;25;20557;-73
2024/04/08 13:11:17;;;;;;;13.03;1.80;;;26.70;1.00;;;;;;5519990;25;20572;-73
2024/04/08 13:14:04;;;;;;;6.40;2.20;;;26.70;1.00;;;;;;5509963;25;20898;-73
2024/04/08 13:16:51;;;;;;;9.13;2.63;;;26.80;1.00;;;;;;5514352;25;20515;-72
2024/04/08 13:19:36;;;;;;;10.30;2.90;;;26.90;1.10;;;;;;5508887;25;20513;-73
2024/04/08 13:22:23;;;;;;;24.80;2.73;;;27.10;1.00;;;;;;5508712;25;20506;-72
2024/04/08 13:25:10;;;;;;;14.03;2.60;;;27.10;1.00;;;;;;5507172;25;21089;-73
2024/04/08 13:27:58;;;;;;;15.53;2.83;;;27.10;1.00;;;;;;5513602;25;20520;-72
2024/04/08 13:30:43;;;;;;;8.97;2.70;;;27.10;1.00;;;;;;5511801;25;21167;-73
2024/04/08 13:33:31;;;;;;;19.43;3.30;;;27.20;1.00;;;;;;5515923;25;21121;-74
2024/04/08 13:36:15;;;;;;;19.50;2.33;;;27.30;1.00;;;;;;5513109;25;21144;-73
2024/04/08 13:39:03;;;;;;;13.10;2.33;;;27.40;2.20;;;;;;5512539;25;21080;-73
2024/04/08 13:41:50;;;;;;;9.43;2.10;;;27.40;1.00;;;;;;5520294;25;20567;-73
2024/04/08 13:44:39;;;;;;;13.47;2.23;;;27.40;1.90;;;;;;5512899;25;21117;-74
2024/04/08 13:47:24;;;;;;;7.20;2.20;;;27.50;2.30;;;;;;5510331;25;21143;-73
2024/04/08 13:50:11;;;;;;;15.27;2.77;;;27.40;1.70;;;;;;5517431;25;20500;-73
2024/04/08 13:52:55;;;;;;;10.50;2.77;;;27.40;2.40;;;;;;5518373;25;20547;-74
2024/04/08 13:55:56;;;;;;;10.03;2.30;;;27.40;3.80;;;;;;5519979;25;20570;-74
2024/04/08 13:58:44;;;;;;;12.53;2.63;;;27.20;1.40;;;;;;5506453;25;20514;-73
2024/04/08 14:01:31;;;;;;;17.37;2.50;;;27.00;1.40;;;;;;5511672;25;20982;-74
2024/04/08 14:04:17;;;;;;;13.60;2.23;;;27.00;1.70;;;;;;5511438;25;21143;-73
2024/04/08 14:07:06;;;;;;;15.10;2.43;;;26.80;1.00;;;;;;5515695;25;20564;-75
2024/04/08 14:09:51;;;;;;;11.30;2.47;;;26.80;3.50;;;;;;5518153;25;20519;-74
2024/04/08 14:12:39;;;;;;;10.03;2.07;;;26.80;1.70;;;;;;5507919;25;20501;-74
2024/04/08 14:15:29;;;;;;;9.77;2.77;;;26.80;1.80;;;;;;5510337;25;20539;-73
2024/04/08 14:18:13;;;;;;;17.80;2.93;;;26.50;1.00;;;;;;5516184;25;20500;-74
2024/04/08 14:21:00;;;;;;;10.67;2.43;;;26.40;2.40;;;;;;5519882;25;20570;-74
2024/04/08 14:23:45;;;;;;;13.33;3.23;;;26.30;1.60;;;;;;5508949;25;20567;-74